Terminal Aerodrome Forecast
Issued by NWS Corpus Christi, TX

Home | Current Version | Previous Version | Text Only | Print | Product List | Glossary On
Versions: 1 2 3 4 5 6 7 8 9 10 11 12 13 14 15 16 17 18 19 20 21 22 23
000
FTUS44 KCRP 261143 AAA
TAFVCT
TAF AMD
KVCT 261143Z 2612/2712 00000KT 1/4SM FG BKN010
      TEMPO 2612/2613 1SM BR BKN013
     FM261330 19004KT 3SM BR BKN018
     FM261430 21006KT P6SM SCT030
     FM262000 15008KT P6SM SCT060
     FM270930 VRB02KT 1SM BR BKN012=

USA.gov is the U.S. government's official web portal to all federal, state and local government web resources and services.